createdAt,value
2019-03-12T00:02:12.744Z,97949.86
2019-03-12T00:07:16.185Z,97953.31
2019-03-12T00:12:19.586Z,97955.08
2019-03-12T00:17:23.114Z,97970.49
2019-03-12T00:22:26.604Z,97980.03
2019-03-12T00:27:30.122Z,97994.97
2019-03-12T00:32:33.519Z,98001.12
2019-03-12T00:37:37.015Z,98014.01
2019-03-12T00:42:40.397Z,98019.55
2019-03-12T00:47:43.852Z,98039.26
2019-03-12T00:52:47.352Z,98052.93
2019-03-12T00:57:50.878Z,98072.20
2019-03-12T01:02:54.287Z,98083.78
2019-03-12T01:07:57.755Z,98084.64
2019-03-12T01:13:01.236Z,98101.02
2019-03-12T01:18:04.672Z,98115.52
2019-03-12T01:23:08.225Z,98121.99
2019-03-12T01:28:11.697Z,98122.84
2019-03-12T01:33:15.268Z,98134.45
2019-03-12T01:38:18.903Z,98137.02
2019-03-12T01:43:22.335Z,98140.03
2019-03-12T01:48:25.907Z,98157.66
2019-03-12T01:53:29.326Z,98171.40
2019-03-12T01:58:32.813Z,98179.63
2019-03-12T02:03:36.256Z,98186.08
2019-03-12T02:08:39.635Z,98190.33
2019-03-12T02:13:43.115Z,98193.41
2019-03-12T02:18:46.630Z,98199.05
2019-03-12T02:23:50.109Z,98213.77
2019-03-12T02:28:53.677Z,98216.87
2019-03-12T02:33:57.211Z,98221.59
2019-03-12T02:39:00.655Z,98213.50
2019-03-12T02:44:04.443Z,98210.55
2019-03-12T02:49:09.726Z,98220.37
2019-03-12T02:54:11.293Z,98221.73
2019-03-12T02:59:15.136Z,98227.79
2019-03-12T03:04:18.688Z,98235.06
2019-03-12T03:09:22.129Z,98240.16
2019-03-12T03:14:30.913Z,98246.56
2019-03-12T03:19:34.379Z,98259.91
2019-03-12T03:24:37.843Z,98255.97
2019-03-12T03:29:41.402Z,98254.16
2019-03-12T03:34:44.845Z,98264.86
2019-03-12T03:39:48.427Z,98272.17
2019-03-12T03:44:51.864Z,98263.58
2019-03-12T03:49:55.290Z,98264.88
2019-03-12T03:54:58.765Z,98272.70
2019-03-12T04:00:02.202Z,98284.38
2019-03-12T04:05:05.979Z,98292.16
2019-03-12T04:10:09.510Z,98292.95
2019-03-12T04:15:13.081Z,98304.61
2019-03-12T04:20:16.688Z,98303.33
2019-03-12T04:25:20.276Z,98298.68
2019-03-12T04:30:23.710Z,98298.41
2019-03-12T04:35:27.312Z,98298.52
2019-03-12T04:40:30.807Z,98298.67
2019-03-12T04:45:34.225Z,98307.20
2019-03-12T04:50:37.680Z,98314.44
2019-03-12T04:55:41.173Z,98313.11
2019-03-12T05:00:44.675Z,98313.55
2019-03-12T05:05:48.171Z,98306.25
2019-03-12T05:10:51.696Z,98312.66
2019-03-12T05:15:55.164Z,98331.50
2019-03-12T05:20:58.615Z,98328.98
2019-03-12T05:26:03.058Z,98340.58
2019-03-12T05:31:06.497Z,98346.69
2019-03-12T05:36:10.173Z,98350.95
2019-03-12T05:41:13.664Z,98339.30
2019-03-12T05:46:17.060Z,98346.93
2019-03-12T05:51:20.480Z,98350.35
2019-03-12T05:56:23.890Z,98350.34
2019-03-12T06:01:28.420Z,98350.23
2019-03-12T06:06:31.840Z,98354.05
2019-03-12T06:11:35.310Z,98372.06
2019-03-12T06:16:38.736Z,98373.86
2019-03-12T06:21:42.235Z,98374.62
2019-03-12T06:26:46.018Z,98380.66
2019-03-12T06:31:56.532Z,98383.67
2019-03-12T06:37:04.191Z,98390.91
2019-03-12T06:42:27.723Z,98388.28
2019-03-12T06:47:39.217Z,98398.14
2019-03-12T06:52:47.792Z,98398.14
2019-03-12T07:00:10.475Z,98395.47
2019-03-12T07:07:26.215Z,98396.68
2019-03-12T07:12:37.017Z,98400.11
2019-03-12T07:19:46.701Z,98405.59
2019-03-12T07:24:55.196Z,98391.84
2019-03-12T07:30:05.839Z,98388.47
2019-03-12T07:35:22.530Z,98386.28
2019-03-12T07:40:31.926Z,98376.86
2019-03-12T07:45:44.303Z,98383.45
2019-03-12T07:50:59.624Z,98383.55
2019-03-12T07:56:08.113Z,98378.52
2019-03-12T08:01:24.899Z,98366.05
2019-03-12T08:06:31.323Z,98367.11
2019-03-12T08:11:47.840Z,98370.00
2019-03-12T08:17:00.300Z,98366.73
2019-03-12T08:22:12.901Z,98369.36
2019-03-12T08:27:55.416Z,98364.16
2019-03-12T08:33:04.050Z,98363.30
2019-03-12T08:38:31.632Z,98355.16
2019-03-12T08:43:39.207Z,98353.02
2019-03-12T08:48:52.842Z,98340.84
2019-03-12T08:54:02.455Z,98325.02
2019-03-12T08:59:13.743Z,98328.62
2019-03-12T09:04:36.257Z,98335.30
2019-03-12T09:10:01.712Z,98325.02
2019-03-12T09:15:10.711Z,98323.20
2019-03-12T09:20:34.316Z,98321.57
2019-03-12T09:25:41.907Z,98311.44
2019-03-12T09:30:50.642Z,98313.67
2019-03-12T09:36:00.180Z,98307.80
2019-03-12T09:41:08.858Z,98311.09
2019-03-12T09:47:14.465Z,98297.30
2019-03-12T09:52:22.063Z,98292.57
2019-03-12T09:58:38.709Z,98268.25
2019-03-12T10:03:48.239Z,98261.48
2019-03-12T10:08:56.992Z,98273.77
2019-03-12T10:14:04.719Z,98258.81
2019-03-12T10:19:14.278Z,98253.77
2019-03-12T10:24:28.721Z,98248.52
2019-03-12T10:29:39.597Z,98248.46
2019-03-12T10:35:45.344Z,98238.86
2019-03-12T10:40:54.905Z,98222.14
2019-03-12T10:46:10.356Z,98211.30
2019-03-12T10:51:13.812Z,98203.45
2019-03-12T10:56:17.353Z,98205.08
2019-03-12T11:01:20.815Z,98191.80
2019-03-12T11:06:24.353Z,98185.11
2019-03-12T11:11:28.074Z,98180.97
2019-03-12T11:16:31.535Z,98178.61
2019-03-12T11:21:35.136Z,98162.33
2019-03-12T11:26:38.633Z,98153.25
2019-03-12T11:31:42.075Z,98149.30
2019-03-12T11:36:46.649Z,98137.00
2019-03-12T11:41:50.093Z,98126.48
2019-03-12T11:46:53.696Z,98114.83
2019-03-12T11:51:57.148Z,98100.97
2019-03-12T11:57:00.599Z,98081.18
2019-03-12T12:02:04.052Z,98077.00
2019-03-12T12:07:07.531Z,98077.86
2019-03-12T12:12:10.948Z,98060.30
2019-03-12T12:17:14.564Z,98048.13
2019-03-12T12:22:17.995Z,98041.16
2019-03-12T12:27:21.462Z,98032.48
2019-03-12T12:32:25.071Z,98027.06
2019-03-12T12:37:28.479Z,98012.05
2019-03-12T12:42:32.029Z,97992.67
2019-03-12T12:47:35.529Z,97968.55
2019-03-12T12:52:39.019Z,97955.41
2019-03-12T12:57:42.475Z,97944.91
2019-03-12T13:02:45.971Z,97924.20
2019-03-12T13:07:52.047Z,97910.34
2019-03-12T13:12:55.528Z,97895.19
2019-03-12T13:17:58.984Z,97871.73
2019-03-12T13:23:02.582Z,97872.38
2019-03-12T13:28:05.999Z,97843.55
2019-03-12T13:33:09.424Z,97836.16
2019-03-12T13:38:12.880Z,97827.20
2019-03-12T13:43:16.335Z,97818.28
2019-03-12T13:48:19.877Z,97809.47
2019-03-12T13:53:23.432Z,97804.34
2019-03-12T13:58:26.878Z,97790.49
2019-03-12T14:03:30.346Z,97778.22
2019-03-12T14:08:33.763Z,97760.19
2019-03-12T14:13:37.285Z,97757.17
2019-03-12T14:18:40.800Z,97765.08
2019-03-12T14:23:48.413Z,97743.09
2019-03-12T14:28:52.725Z,97726.36
2019-03-12T14:33:55.472Z,97717.13
2019-03-12T14:38:58.939Z,97716.27
2019-03-12T14:44:02.576Z,97698.05
2019-03-12T14:49:07.507Z,97676.45
2019-03-12T14:54:11.100Z,97672.55
2019-03-12T14:59:14.550Z,97667.37
2019-03-12T15:04:18.061Z,97645.04
2019-03-12T15:09:21.660Z,97630.28
2019-03-12T15:14:25.301Z,97626.95
2019-03-12T15:19:28.713Z,97604.23
2019-03-12T15:24:32.246Z,97603.45
2019-03-12T15:29:35.767Z,97603.16
2019-03-12T15:34:39.251Z,97588.50
2019-03-12T15:39:42.825Z,97569.25
2019-03-12T15:44:46.266Z,97563.86
2019-03-12T15:49:49.744Z,97557.59
2019-03-12T15:54:53.208Z,97546.86
2019-03-12T15:59:56.722Z,97544.22
2019-03-12T16:05:00.447Z,97534.52
2019-03-12T16:10:03.944Z,97522.25
2019-03-12T16:15:09.064Z,97516.95
2019-03-12T16:20:12.820Z,97516.27
2019-03-12T16:25:16.332Z,97504.42
2019-03-12T16:30:20.037Z,97491.57
2019-03-12T16:35:23.558Z,97476.23
2019-03-12T16:40:28.144Z,97465.75
2019-03-12T16:45:31.755Z,97453.05
2019-03-12T16:50:35.448Z,97446.42
2019-03-12T16:55:39.137Z,97429.47
2019-03-12T17:00:42.697Z,97416.83
2019-03-12T17:05:46.273Z,97403.62
2019-03-12T17:10:55.993Z,97396.16
2019-03-12T17:15:54.880Z,97382.41
2019-03-12T17:20:56.891Z,97376.77
2019-03-12T17:26:00.550Z,97366.67
2019-03-12T17:31:04.157Z,97362.27
2019-03-12T17:36:07.915Z,97351.26
2019-03-12T17:41:11.603Z,97349.18
2019-03-12T17:46:15.097Z,97343.05
2019-03-12T17:51:18.633Z,97314.73
2019-03-12T17:56:22.153Z,97308.55
2019-03-12T18:01:30.246Z,97309.47
2019-03-12T18:06:29.396Z,97310.58
2019-03-12T18:11:32.994Z,97300.67
2019-03-12T18:16:41.386Z,97293.02
2019-03-12T18:21:41.028Z,97285.88
2019-03-12T18:26:44.644Z,97280.44
2019-03-12T18:31:48.156Z,97270.63
2019-03-12T18:36:51.728Z,97261.76
2019-03-12T18:41:55.980Z,97249.45
2019-03-12T18:46:59.117Z,97246.62
2019-03-12T18:52:02.702Z,97234.69
2019-03-12T18:57:06.295Z,97221.13
2019-03-12T19:02:09.902Z,97217.45
2019-03-12T19:07:18.367Z,97194.81
2019-03-12T19:12:17.040Z,97185.65
2019-03-12T19:17:20.707Z,97174.64
2019-03-12T19:22:24.225Z,97166.45
2019-03-12T19:27:27.857Z,97142.73
2019-03-12T19:32:37.758Z,97138.23
2019-03-12T19:37:41.505Z,97136.92
2019-03-12T19:42:45.162Z,97124.94
2019-03-12T19:47:49.136Z,97120.13
2019-03-12T19:52:55.105Z,97109.69
2019-03-12T19:57:59.058Z,97096.16
2019-03-12T20:03:10.664Z,97087.28
2019-03-12T20:08:06.646Z,97070.11
2019-03-12T20:15:59.120Z,97061.86
2019-03-12T20:23:19.605Z,97034.40
2019-03-12T20:28:37.018Z,97016.45
2019-03-12T20:34:26.576Z,96987.31
2019-03-12T20:39:43.198Z,96982.34
2019-03-12T20:46:58.977Z,96988.19
2019-03-12T20:52:18.379Z,96977.88
2019-03-12T20:57:33.008Z,96964.93
2019-03-12T21:02:47.774Z,96958.16
2019-03-12T21:08:03.183Z,96954.33
2019-03-12T21:15:18.695Z,96943.27
2019-03-12T21:22:39.420Z,96950.27
2019-03-12T21:28:21.674Z,96928.39
2019-03-12T21:33:25.430Z,96909.47
2019-03-12T21:38:33.116Z,96901.11
2019-03-12T21:43:36.772Z,96893.58
2019-03-12T21:48:40.797Z,96899.63
2019-03-12T21:53:44.626Z,96884.05
2019-03-12T21:58:48.399Z,96872.41
2019-03-12T22:03:52.012Z,96876.41
2019-03-12T22:08:55.897Z,96862.14
2019-03-12T22:13:59.537Z,96844.69
2019-03-12T22:19:03.031Z,96834.45
2019-03-12T22:24:07.719Z,96812.86
2019-03-12T22:29:11.398Z,96804.26
2019-03-12T22:34:14.890Z,96796.22
2019-03-12T22:39:18.362Z,96792.59
2019-03-12T22:44:22.836Z,96772.23
2019-03-12T22:49:26.247Z,96751.44
2019-03-12T22:54:29.762Z,96749.37
2019-03-12T22:59:33.277Z,96746.28
2019-03-12T23:04:36.969Z,96696.11
2019-03-12T23:09:40.536Z,96710.28
2019-03-12T23:14:44.093Z,96702.70
2019-03-12T23:19:47.513Z,96693.52
2019-03-12T23:24:51.106Z,96685.84
2019-03-12T23:29:54.560Z,96649.36
2019-03-12T23:34:58.058Z,96664.13
2019-03-12T23:40:01.557Z,96656.36
2019-03-12T23:45:05.620Z,96665.48
2019-03-12T23:50:09.104Z,96647.63
2019-03-12T23:55:12.620Z,96635.45
